Nearby METAR Reports


RPLC - Angeles/Pampanga, Philippines
Distance from station: S 166km
Updated: Thu, 15-Nov-2018 4:00pm +08
Partly cloudy
Partly cloudy
 Wind from E
Wind: E 22 km/h
Temperature: 31°C
Heat Index: 35°C
Dew Point: 22°C
Humidity: 59%
Barometer: 1011 hPa
Clouds: Partly cloudy
Visibility: 10 km
Cloud details: Few Clouds 610 m
Partly cloudy 9144 m
2018/11/15 08:00 RPLC 150800Z 08012KT 9999 FEW020 SCT300 31/22 Q1011 NOSIG RMK A2985
RPLI - Laoag Intl Airport, Philippines
Distance from station: N 171km
Updated: Thu, 15-Nov-2018 4:00pm +08
Few Clouds
Few Clouds
 Wind from N
Wind: N 7 km/h
Temperature: 31°C
Heat Index: 38°C
Dew Point: 25°C
Humidity: 70%
Barometer: 1009 hPa
Clouds: Few Clouds
Visibility: 10 km
Cloud details: Few Clouds 549 m
2018/11/15 08:00 RPLI 150800Z 01004KT 9999 FEW018 31/25 Q1009 NOSIG RK A2980
 
RPLB - Olongapo/Subic, Philippines
Distance from station: S 205km
Updated: Thu, 15-Nov-2018 4:00pm +08
Few Clouds
Few Clouds
 Wind from ENE
Wind: ENE 17 km/h
Temperature: 32°C
Heat Index: 36°C
Dew Point: 22°C
Humidity: 55%
Barometer: 1010 hPa
Clouds: Few Clouds
Visibility: 10 km
Cloud details: Few Clouds 610 m
2018/11/15 08:00 RPLB 150800Z 07009KT 9999 FEW020 32/22 Q1010 NOSIG RMK A2983
RPLL - Ninoy Aquino Intl Airport, Philippines
Distance from station: SSE 247km
Updated: Thu, 15-Nov-2018 4:00pm +08
Few Clouds
Few Clouds
 Wind from E
Wind: E 19 km/h
Temperature: 32°C
Heat Index: 34°C
Dew Point: 20°C
Humidity: 49%
Barometer: 1010 hPa
Clouds: Few Clouds
Visibility: 10 km
Cloud details: Few Clouds 762 m
2018/11/15 08:00 RPLL 150800Z 10010KT 9999 FEW025 32/20 Q1010 NOSIG RMK A2983